Airport View

Enter AWOS ICAO identifier for current METAR.

ex. KFNL

KBBD 120615Z AUTO 16007KT 10SM CLR 03/01 A3032 RMK AO2

12 Dec 2019 06:21

Frequency: 118.375

Phone: 325-597-9139

Other Area AWOS: KCOM - KBWD - KAQO - KJCT

TAF KBBD 120520Z 1206/1306 14006KT P6SM SCT250 FM121800 20010KT P6SM SCT250 FM130000 18005KT P6SM FEW250